Briefing drone pour Thones

Rechercher une autre localisation

Conditions de vol :


Nous sommes le : Jeudi 26 mai 2022
Il est 04:39 UTC (06:39 LT)

Lever de soleil : 03:25 UTC (05:25 LT)
Coucher de soleil : 19:37 UTC (21:37 LT)

Météo

L'essentiel des conditions de vol

VIGILANCE MÉTÉO FRANCE - Haute-Savoie (74)
Pas de vigilances particulieres
CARTE TEMSI
CARTES DES FRONTS
METAR de LFLP
LFLP 260430Z AUTO 08002KT CAVOK 10/07 Q1024 NOSIG

Date d'émission: 26/05/2022
Heure d'émission: 04:30 UTC
Vent: 080° pour 2 KT (4 km/h)
Visibilité horizontale: > 10 km
Plafond : Plafond et visibilité OK (CAVOK)
Température: 10 °C
Point de rosée: 7 °C
Humidité: 82%
Pression (QNH): 1024 hPa
Conditions: Pas de changement dans les 2 heures (NOSIG)
TAF de LFLP
AMD LFLP 252000Z 2520/2615 CNL

Conditions prévues :

Heure d'émission : Bulletin éffectué le 25 à 20:00 UTC
Prévision : Valide du 25 a 20:00 UTC au 26 a 15:00 UTC
Nuages : à 0ft (0 m)
WEBCAM POUR THONES

Réglementation

Voler en sécurité

CARTES AERONAUTIQUE 1/500.000
CARTES VAC (LFLP)
SUP AIP




Chargement des AIP...
NOTAM (THONES + Terrain à proximité / FIR )




Chargement des NOTAMS...
CONTACT PREFECTURE 74


Avertissement : Les données mises à disposition sont indicatives. Oxygène Drone ne pourra être tenu responsable de dégâts causés aux biens et aux personnes.